• Join FlightAware (Why Join?)
  • Login
  • US Flag 
12:14AM EDT


 

Airport Tracker/Info


-or-


 

Live Flight TrackerFlight Track Log ✈ SWA1435 ✈ 10-May-2013 ✈ KSTL - KOMA

Flight Track Log - Related Links

Times and Time Zones

All times are in EDT time to prevent confusion due to time zone crossing. See the SWA1435 flight status page for this flight to view local times or setup timezone preferences in your user account.

Time Position Orientation Groundspeed Altitude Reporting Facility
EDT Latitude Longitude Course Direction KTS MPH feet Rate Location/Type
09:29AM 38.7833 -90.4333 318° Northwest 203 234 3,400  Level Gateway (St. Louis) TRACON
09:29AM 38.7850 -90.4417 284° West 201 231 4,100 2,280 Climbing Kansas City Center
09:30AM 38.8211 -90.5142 303° West 223 257 6,400 2,580 Climbing Kansas City Center
09:31AM 38.8622 -90.5964 303° West 256 295 9,500 2,760 Climbing Kansas City Center
09:32AM 38.9039 -90.6792 303° West 270 311 12,200 2,340 Climbing Kansas City Center
09:33AM 38.9531 -90.7778 303° West 307 353 14,400 2,520 Climbing Kansas City Center
09:34AM 38.7938 -90.7456 318° Northwest  Level FlightAware Approximate
09:34AM 39.0144 -90.9008 303° West 333 383 17,400  Level Kansas City Center
09:35AM 39.0683 -91.0097 303° West 347 399 20,100 2,400 Climbing Kansas City Center
09:36AM 39.1219 -91.1217 302° West 359 413 22,400 2,100 Climbing Kansas City Center
09:37AM 39.1728 -91.2400 299° West 369 425 24,500 1,920 Climbing Kansas City Center
09:38AM 39.2211 -91.3628 297° West 377 434 26,400 1,740 Climbing Kansas City Center
09:39AM 39.2683 -91.4869 296° West 384 442 28,100 1,500 Climbing Kansas City Center
09:40AM 39.3183 -91.6139 297° West 395 455 29,500 1,740 Climbing Kansas City Center
09:41AM 39.3750 -91.7586 297° West 395 455 31,700 1,620 Climbing Kansas City Center
09:42AM 39.4267 -91.8808 299° West 391 450 32,900 1,020 Climbing Kansas City Center
09:43AM 39.4956 -91.9933 308° West 399 459 33,900 480 Climbing Kansas City Center
09:44AM 39.5608 -92.1119 306° West 404 465 34,000  Climbing Kansas City Center
09:45AM 39.6275 -92.2281 307° West 404 465 34,000  Level Kansas City Center
09:46AM 39.7047 -92.3636 307° West 394 453 34,000  Level Kansas City Center
09:47AM 39.7686 -92.4764 306° West 389 448 34,000  Level Kansas City Center
09:48AM 39.8342 -92.5883 307° West 390 449 34,000  Level Kansas City Center
09:49AM 39.9003 -92.7061 306° West 398 458 34,000  Level Kansas City Center
09:50AM 39.9664 -92.8228 307° West 399 459 34,000  Level Kansas City Center
09:51AM 40.0319 -92.9414 306° West 402 463 34,000  Level Kansas City Center
09:53AM 40.0978 -93.0611 306° West 404 465 34,000  Level Kansas City Center
09:54AM 40.1808 -93.2061 307° West 411 473 34,000  Level Kansas City Center
09:55AM 40.2447 -93.3250 305° West 408 470 34,000  Level Kansas City Center
09:56AM 40.3117 -93.4461 306° West 410 472 34,000  Level Kansas City Center
09:57AM 40.3772 -93.5675 305° West 411 473 34,000  Level Kansas City Center
09:58AM 40.4444 -93.6875 306° West 411 473 34,000  Level Kansas City Center
09:59AM 40.5094 -93.8081 305° West 408 470 34,000 -360 Level Kansas City Center
10:00AM 40.5878 -93.9536 305° West 408 470 33,300 -840 Descending Kansas City Center
10:01AM 40.6194 -94.0972 286° West 414 476 32,300 -1,560 Descending Kansas City Center
10:02AM 40.6422 -94.2447 282° West 412 474 30,200 -2,280 Descending Kansas City Center
10:03AM 40.6672 -94.3914 283° West 415 478 27,700 -2,400 Descending Kansas City Center
10:04AM 40.6911 -94.5378 282° West 391 450 25,300 -2,400 Descending Kansas City Center
10:05AM 40.7142 -94.6864 282° West 375 432 22,800 -2,220 Descending Kansas City Center
10:06AM 40.7336 -94.8081 282° West 362 417 20,800 -2,160 Descending Kansas City Center
10:06AM 40.7531 -94.8336 315° West 353 406 20,100 -2,100 Descending Minneapolis Center
10:07AM 40.7558 -94.9553 272° West 341 392 18,300 -1,920 Descending Minneapolis Center
10:08AM 40.7753 -95.0703 283° West 332 382 16,300 -1,680 Descending Minneapolis Center
10:09AM 40.8453 -95.1747 312° West 299 344 14,700 -2,100 Descending Minneapolis Center
10:10AM 40.8892 -95.2700 301° West 314 361 11,600 -2,520 Descending Minneapolis Center
10:11AM 40.9553 -95.3650 313° West 333 383 9,700 -1,620 Descending Minneapolis Center
10:12AM 40.9931 -95.4544 299° West 274 315 8,600 -1,260 Descending Minneapolis Center
10:13AM 41.0233 -95.5558 292° West 274 315 7,200 -1,800 Descending Minneapolis Center
10:14AM 41.0503 -95.6436 292° West 255 293 5,000 -1,980 Descending Minneapolis Center
10:15AM 41.1047 -95.7064 319° Northwest 264 304 3,200 -1,020 Descending Minneapolis Center
10:16AM 41.1583 -95.7581 324° Northwest 229 264 3,000 -120 Descending Minneapolis Center
10:17AM 41.2011 -95.8031 322° Northwest 175 201 3,000  Level Minneapolis Center
10:18AM 41.2069 -95.8044 350° North 218 251 3,000 -720 Level Minneapolis Center
10:18AM 41.2392 -95.8400 320° Northwest 142 163 2,300 -900 Descending Minneapolis Center
10:19AM 41.2486 -95.8442 342° North 174 200 2,100 -720 Descending Minneapolis Center
10:19AM 41.2703 -95.8669 322° Northwest 128 147 1,600 -540 Descending Minneapolis Center
10:20AM 41.2722 -95.8672 354° North 156 180 1,600 -420 Level Minneapolis Center
10:21AM 41.3025 -95.8961 324° Northwest 142 163 1,000 -540 Descending Minneapolis Center